Terminal Aerodrome Forecast
Issued by NWS

Home | Current Version | Previous Version | Text Only | Print | Product List | Glossary On
Versions: 1 2 3 4 5 6 7 8 9 10 11 12 13 14 15 16 17 18 19
510
FTUS41 KPBZ 260523 CCA
TAFFKL
TAF COR
KFKL 260523Z 2605/2706 26008KT P6SM -SHRA OVC004
     FM261400 27008KT P6SM VCSH OVC008
     FM261600 27009KT P6SM OVC010
     FM262000 28009KT P6SM BKN020
      AMD LTD TO CLD VIS AND WIND=

USA.gov is the U.S. government's official web portal to all federal, state and local government web resources and services.